sensor_id;sensor_type;location;lat;lon;timestamp;P1;durP1;ratioP1;P2;durP2;ratioP2
36497;SDS011;22513;51.222;6.480;2023-12-14T00:00:46;0.40;;;0.40;;
36497;SDS011;22513;51.222;6.480;2023-12-14T00:03:12;0.47;;;0.32;;
36497;SDS011;22513;51.222;6.480;2023-12-14T00:05:37;0.50;;;0.50;;
36497;SDS011;22513;51.222;6.480;2023-12-14T00:08:03;0.40;;;0.40;;
36497;SDS011;22513;51.222;6.480;2023-12-14T00:10:29;0.45;;;0.45;;
36497;SDS011;22513;51.222;6.480;2023-12-14T00:12:54;0.32;;;0.32;;
36497;SDS011;22513;51.222;6.480;2023-12-14T00:15:20;0.35;;;0.35;;
36497;SDS011;22513;51.222;6.480;2023-12-14T00:17:46;0.50;;;0.50;;
36497;SDS011;22513;51.222;6.480;2023-12-14T00:20:12;0.50;;;0.50;;
36497;SDS011;22513;51.222;6.480;2023-12-14T00:22:37;0.40;;;0.40;;
36497;SDS011;22513;51.222;6.480;2023-12-14T00:25:04;0.60;;;0.60;;
36497;SDS011;22513;51.222;6.480;2023-12-14T00:27:30;0.70;;;0.47;;
36497;SDS011;22513;51.222;6.480;2023-12-14T00:29:55;0.40;;;0.40;;
36497;SDS011;22513;51.222;6.480;2023-12-14T00:32:21;0.40;;;0.40;;
36497;SDS011;22513;51.222;6.480;2023-12-14T00:34:47;0.30;;;0.30;;
36497;SDS011;22513;51.222;6.480;2023-12-14T00:37:13;1.67;;;0.50;;
36497;SDS011;22513;51.222;6.480;2023-12-14T00:39:38;0.40;;;0.40;;
36497;SDS011;22513;51.222;6.480;2023-12-14T00:42:04;0.47;;;0.47;;
36497;SDS011;22513;51.222;6.480;2023-12-14T00:44:30;0.45;;;0.45;;
36497;SDS011;22513;51.222;6.480;2023-12-14T00:46:55;0.50;;;0.50;;
36497;SDS011;22513;51.222;6.480;2023-12-14T00:49:23;0.40;;;0.40;;
36497;SDS011;22513;51.222;6.480;2023-12-14T00:51:49;0.50;;;0.50;;
36497;SDS011;22513;51.222;6.480;2023-12-14T00:54:14;0.47;;;0.45;;
36497;SDS011;22513;51.222;6.480;2023-12-14T00:56:40;0.50;;;0.50;;
36497;SDS011;22513;51.222;6.480;2023-12-14T00:59:05;0.60;;;0.60;;
36497;SDS011;22513;51.222;6.480;2023-12-14T01:01:31;0.40;;;0.40;;
36497;SDS011;22513;51.222;6.480;2023-12-14T01:03:57;0.30;;;0.30;;
36497;SDS011;22513;51.222;6.480;2023-12-14T01:06:22;0.63;;;0.60;;
36497;SDS011;22513;51.222;6.480;2023-12-14T01:08:48;0.40;;;0.40;;
36497;SDS011;22513;51.222;6.480;2023-12-14T01:11:13;0.50;;;0.50;;
36497;SDS011;22513;51.222;6.480;2023-12-14T01:13:39;0.47;;;0.40;;
36497;SDS011;22513;51.222;6.480;2023-12-14T01:16:05;0.47;;;0.47;;
36497;SDS011;22513;51.222;6.480;2023-12-14T01:18:30;0.52;;;0.45;;
36497;SDS011;22513;51.222;6.480;2023-12-14T01:20:56;0.57;;;0.50;;
36497;SDS011;22513;51.222;6.480;2023-12-14T01:23:22;0.50;;;0.50;;
36497;SDS011;22513;51.222;6.480;2023-12-14T01:25:47;0.60;;;0.50;;
36497;SDS011;22513;51.222;6.480;2023-12-14T01:28:13;0.60;;;0.55;;
36497;SDS011;22513;51.222;6.480;2023-12-14T01:30:39;0.65;;;0.55;;
36497;SDS011;22513;51.222;6.480;2023-12-14T01:33:04;0.50;;;0.50;;
36497;SDS011;22513;51.222;6.480;2023-12-14T01:35:30;0.60;;;0.60;;
36497;SDS011;22513;51.222;6.480;2023-12-14T01:37:55;0.60;;;0.60;;
36497;SDS011;22513;51.222;6.480;2023-12-14T01:40:21;0.50;;;0.50;;
36497;SDS011;22513;51.222;6.480;2023-12-14T01:42:47;0.75;;;0.60;;
36497;SDS011;22513;51.222;6.480;2023-12-14T01:45:12;0.40;;;0.40;;
36497;SDS011;22513;51.222;6.480;2023-12-14T01:47:42;0.47;;;0.47;;
36497;SDS011;22513;51.222;6.480;2023-12-14T01:50:08;0.80;;;0.70;;
36497;SDS011;22513;51.222;6.480;2023-12-14T01:52:34;0.60;;;0.60;;
36497;SDS011;22513;51.222;6.480;2023-12-14T01:54:59;0.55;;;0.55;;
36497;SDS011;22513;51.222;6.480;2023-12-14T01:57:27;1.02;;;0.70;;
36497;SDS011;22513;51.222;6.480;2023-12-14T01:59:53;0.80;;;0.60;;
36497;SDS011;22513;51.222;6.480;2023-12-14T02:02:18;0.50;;;0.50;;
36497;SDS011;22513;51.222;6.480;2023-12-14T02:04:44;0.73;;;0.68;;
36497;SDS011;22513;51.222;6.480;2023-12-14T02:07:10;0.60;;;0.60;;
36497;SDS011;22513;51.222;6.480;2023-12-14T02:09:35;0.50;;;0.50;;
36497;SDS011;22513;51.222;6.480;2023-12-14T02:12:01;0.70;;;0.70;;
36497;SDS011;22513;51.222;6.480;2023-12-14T02:14:27;0.60;;;0.60;;
36497;SDS011;22513;51.222;6.480;2023-12-14T02:16:52;0.65;;;0.65;;
36497;SDS011;22513;51.222;6.480;2023-12-14T02:19:18;0.65;;;0.60;;
36497;SDS011;22513;51.222;6.480;2023-12-14T02:21:43;0.57;;;0.57;;
36497;SDS011;22513;51.222;6.480;2023-12-14T02:24:09;0.50;;;0.50;;
36497;SDS011;22513;51.222;6.480;2023-12-14T02:26:34;0.85;;;0.65;;
36497;SDS011;22513;51.222;6.480;2023-12-14T02:29:00;0.98;;;0.80;;
36497;SDS011;22513;51.222;6.480;2023-12-14T02:31:26;0.63;;;0.63;;
36497;SDS011;22513;51.222;6.480;2023-12-14T02:33:51;1.10;;;0.80;;
36497;SDS011;22513;51.222;6.480;2023-12-14T02:36:17;0.75;;;0.68;;
36497;SDS011;22513;51.222;6.480;2023-12-14T02:38:42;0.75;;;0.75;;
36497;SDS011;22513;51.222;6.480;2023-12-14T02:41:08;0.63;;;0.60;;
36497;SDS011;22513;51.222;6.480;2023-12-14T02:43:35;0.63;;;0.50;;
36497;SDS011;22513;51.222;6.480;2023-12-14T02:46:03;0.50;;;0.50;;
36497;SDS011;22513;51.222;6.480;2023-12-14T02:48:28;0.80;;;0.80;;
36497;SDS011;22513;51.222;6.480;2023-12-14T02:50:54;0.70;;;0.70;;
36497;SDS011;22513;51.222;6.480;2023-12-14T02:53:20;0.63;;;0.63;;
36497;SDS011;22513;51.222;6.480;2023-12-14T02:55:46;0.88;;;0.60;;
36497;SDS011;22513;51.222;6.480;2023-12-14T02:58:11;0.68;;;0.68;;
36497;SDS011;22513;51.222;6.480;2023-12-14T03:00:37;0.65;;;0.65;;
36497;SDS011;22513;51.222;6.480;2023-12-14T03:03:02;0.60;;;0.60;;
36497;SDS011;22513;51.222;6.480;2023-12-14T03:05:28;0.80;;;0.80;;
36497;SDS011;22513;51.222;6.480;2023-12-14T03:07:53;0.73;;;0.73;;
36497;SDS011;22513;51.222;6.480;2023-12-14T03:10:19;0.80;;;0.80;;
36497;SDS011;22513;51.222;6.480;2023-12-14T03:12:44;0.73;;;0.70;;
36497;SDS011;22513;51.222;6.480;2023-12-14T03:15:10;0.93;;;0.80;;
36497;SDS011;22513;51.222;6.480;2023-12-14T03:17:36;0.60;;;0.60;;
36497;SDS011;22513;51.222;6.480;2023-12-14T03:20:01;0.80;;;0.80;;
36497;SDS011;22513;51.222;6.480;2023-12-14T03:22:28;0.70;;;0.60;;
36497;SDS011;22513;51.222;6.480;2023-12-14T03:24:54;0.70;;;0.70;;
36497;SDS011;22513;51.222;6.480;2023-12-14T03:27:19;1.02;;;0.73;;
36497;SDS011;22513;51.222;6.480;2023-12-14T03:29:46;0.68;;;0.68;;
36497;SDS011;22513;51.222;6.480;2023-12-14T03:32:11;1.10;;;1.00;;
36497;SDS011;22513;51.222;6.480;2023-12-14T03:34:37;0.60;;;0.52;;
36497;SDS011;22513;51.222;6.480;2023-12-14T03:37:02;0.60;;;0.60;;
36497;SDS011;22513;51.222;6.480;2023-12-14T03:39:28;0.60;;;0.60;;
36497;SDS011;22513;51.222;6.480;2023-12-14T03:41:54;0.73;;;0.73;;
36497;SDS011;22513;51.222;6.480;2023-12-14T03:44:19;1.00;;;0.70;;
36497;SDS011;22513;51.222;6.480;2023-12-14T03:46:45;0.47;;;0.47;;
36497;SDS011;22513;51.222;6.480;2023-12-14T03:49:11;0.70;;;0.70;;
36497;SDS011;22513;51.222;6.480;2023-12-14T03:51:36;0.80;;;0.70;;
36497;SDS011;22513;51.222;6.480;2023-12-14T03:54:02;0.80;;;0.80;;
36497;SDS011;22513;51.222;6.480;2023-12-14T03:56:27;0.73;;;0.73;;
36497;SDS011;22513;51.222;6.480;2023-12-14T03:58:53;0.60;;;0.60;;
36497;SDS011;22513;51.222;6.480;2023-12-14T04:01:19;0.70;;;0.70;;
36497;SDS011;22513;51.222;6.480;2023-12-14T04:03:48;0.52;;;0.52;;
36497;SDS011;22513;51.222;6.480;2023-12-14T04:06:13;0.55;;;0.50;;
36497;SDS011;22513;51.222;6.480;2023-12-14T04:08:40;0.68;;;0.68;;
36497;SDS011;22513;51.222;6.480;2023-12-14T04:11:06;0.70;;;0.70;;
36497;SDS011;22513;51.222;6.480;2023-12-14T04:13:32;0.73;;;0.73;;
36497;SDS011;22513;51.222;6.480;2023-12-14T04:15:58;0.90;;;0.90;;
36497;SDS011;22513;51.222;6.480;2023-12-14T04:18:24;0.80;;;0.80;;
36497;SDS011;22513;51.222;6.480;2023-12-14T04:20:49;0.77;;;0.77;;
36497;SDS011;22513;51.222;6.480;2023-12-14T04:23:15;0.70;;;0.68;;
36497;SDS011;22513;51.222;6.480;2023-12-14T04:25:41;0.68;;;0.68;;
36497;SDS011;22513;51.222;6.480;2023-12-14T04:28:06;0.93;;;0.70;;
36497;SDS011;22513;51.222;6.480;2023-12-14T04:30:32;0.60;;;0.60;;
36497;SDS011;22513;51.222;6.480;2023-12-14T04:32:58;0.70;;;0.70;;
36497;SDS011;22513;51.222;6.480;2023-12-14T04:35:23;0.82;;;0.82;;
36497;SDS011;22513;51.222;6.480;2023-12-14T04:37:49;1.00;;;1.00;;
36497;SDS011;22513;51.222;6.480;2023-12-14T04:40:15;0.52;;;0.52;;
36497;SDS011;22513;51.222;6.480;2023-12-14T04:42:40;0.95;;;0.77;;
36497;SDS011;22513;51.222;6.480;2023-12-14T04:45:06;1.05;;;0.95;;
36497;SDS011;22513;51.222;6.480;2023-12-14T04:47:34;0.65;;;0.65;;
36497;SDS011;22513;51.222;6.480;2023-12-14T04:50:00;0.80;;;0.80;;
36497;SDS011;22513;51.222;6.480;2023-12-14T04:52:26;0.80;;;0.80;;
36497;SDS011;22513;51.222;6.480;2023-12-14T04:54:51;0.70;;;0.70;;
36497;SDS011;22513;51.222;6.480;2023-12-14T04:57:17;0.73;;;0.73;;
36497;SDS011;22513;51.222;6.480;2023-12-14T04:59:43;0.82;;;0.82;;
36497;SDS011;22513;51.222;6.480;2023-12-14T05:02:08;0.70;;;0.70;;
36497;SDS011;22513;51.222;6.480;2023-12-14T05:04:34;0.80;;;0.80;;
36497;SDS011;22513;51.222;6.480;2023-12-14T05:07:00;1.10;;;0.80;;
36497;SDS011;22513;51.222;6.480;2023-12-14T05:09:25;0.80;;;0.80;;
36497;SDS011;22513;51.222;6.480;2023-12-14T05:11:51;0.82;;;0.70;;
36497;SDS011;22513;51.222;6.480;2023-12-14T05:14:18;1.17;;;1.08;;
36497;SDS011;22513;51.222;6.480;2023-12-14T05:16:43;0.95;;;0.93;;
36497;SDS011;22513;51.222;6.480;2023-12-14T05:19:09;1.20;;;1.10;;
36497;SDS011;22513;51.222;6.480;2023-12-14T05:21:34;1.23;;;1.13;;
36497;SDS011;22513;51.222;6.480;2023-12-14T05:24:00;0.80;;;0.80;;
36497;SDS011;22513;51.222;6.480;2023-12-14T05:26:26;1.02;;;1.00;;
36497;SDS011;22513;51.222;6.480;2023-12-14T05:28:52;0.95;;;0.90;;
36497;SDS011;22513;51.222;6.480;2023-12-14T05:31:17;1.10;;;1.10;;
36497;SDS011;22513;51.222;6.480;2023-12-14T05:33:43;1.08;;;1.00;;
36497;SDS011;22513;51.222;6.480;2023-12-14T05:36:08;0.98;;;0.88;;
36497;SDS011;22513;51.222;6.480;2023-12-14T05:38:35;1.02;;;1.00;;
36497;SDS011;22513;51.222;6.480;2023-12-14T05:41:04;0.98;;;0.98;;
36497;SDS011;22513;51.222;6.480;2023-12-14T05:43:30;1.00;;;0.90;;
36497;SDS011;22513;51.222;6.480;2023-12-14T05:45:56;0.90;;;0.90;;
36497;SDS011;22513;51.222;6.480;2023-12-14T05:48:22;1.10;;;1.00;;
36497;SDS011;22513;51.222;6.480;2023-12-14T05:50:47;1.30;;;1.20;;
36497;SDS011;22513;51.222;6.480;2023-12-14T05:53:13;0.90;;;0.90;;
36497;SDS011;22513;51.222;6.480;2023-12-14T05:55:39;0.80;;;0.80;;
36497;SDS011;22513;51.222;6.480;2023-12-14T05:58:06;1.08;;;1.00;;
36497;SDS011;22513;51.222;6.480;2023-12-14T06:00:32;0.93;;;0.90;;
36497;SDS011;22513;51.222;6.480;2023-12-14T06:02:59;0.90;;;0.90;;
36497;SDS011;22513;51.222;6.480;2023-12-14T06:05:25;0.90;;;0.90;;
36497;SDS011;22513;51.222;6.480;2023-12-14T06:07:51;0.80;;;0.80;;
36497;SDS011;22513;51.222;6.480;2023-12-14T06:10:16;1.30;;;0.93;;
36497;SDS011;22513;51.222;6.480;2023-12-14T06:12:42;0.90;;;0.90;;
36497;SDS011;22513;51.222;6.480;2023-12-14T06:15:07;4.75;;;3.45;;
36497;SDS011;22513;51.222;6.480;2023-12-14T06:17:33;7.43;;;4.60;;
36497;SDS011;22513;51.222;6.480;2023-12-14T06:19:59;8.02;;;7.13;;
36497;SDS011;22513;51.222;6.480;2023-12-14T06:22:25;8.40;;;7.53;;
36497;SDS011;22513;51.222;6.480;2023-12-14T06:24:51;8.90;;;7.32;;
36497;SDS011;22513;51.222;6.480;2023-12-14T06:27:17;9.13;;;6.80;;
36497;SDS011;22513;51.222;6.480;2023-12-14T06:29:43;7.63;;;6.60;;
36497;SDS011;22513;51.222;6.480;2023-12-14T06:32:08;7.75;;;6.95;;
36497;SDS011;22513;51.222;6.480;2023-12-14T06:34:34;7.25;;;6.22;;
36497;SDS011;22513;51.222;6.480;2023-12-14T06:36:59;8.50;;;7.38;;
36497;SDS011;22513;51.222;6.480;2023-12-14T06:39:27;10.30;;;7.63;;
36497;SDS011;22513;51.222;6.480;2023-12-14T06:41:53;9.73;;;7.43;;
36497;SDS011;22513;51.222;6.480;2023-12-14T06:44:18;10.50;;;7.43;;
36497;SDS011;22513;51.222;6.480;2023-12-14T06:46:44;11.55;;;7.50;;
36497;SDS011;22513;51.222;6.480;2023-12-14T06:49:09;9.85;;;8.02;;
36497;SDS011;22513;51.222;6.480;2023-12-14T06:51:35;11.63;;;8.52;;
36497;SDS011;22513;51.222;6.480;2023-12-14T06:54:01;16.73;;;7.47;;
36497;SDS011;22513;51.222;6.480;2023-12-14T06:56:27;10.30;;;7.18;;
36497;SDS011;22513;51.222;6.480;2023-12-14T06:58:52;9.60;;;7.90;;
36497;SDS011;22513;51.222;6.480;2023-12-14T07:01:18;8.27;;;7.03;;
36497;SDS011;22513;51.222;6.480;2023-12-14T07:03:44;8.13;;;6.10;;
36497;SDS011;22513;51.222;6.480;2023-12-14T07:06:13;9.95;;;7.15;;
36497;SDS011;22513;51.222;6.480;2023-12-14T07:08:44;10.40;;;7.25;;
36497;SDS011;22513;51.222;6.480;2023-12-14T07:11:12;9.43;;;7.03;;
36497;SDS011;22513;51.222;6.480;2023-12-14T07:13:38;8.23;;;6.80;;
36497;SDS011;22513;51.222;6.480;2023-12-14T07:16:05;9.20;;;7.47;;
36497;SDS011;22513;51.222;6.480;2023-12-14T07:18:33;8.45;;;7.18;;
36497;SDS011;22513;51.222;6.480;2023-12-14T07:21:02;9.75;;;7.15;;
36497;SDS011;22513;51.222;6.480;2023-12-14T07:23:28;8.73;;;7.03;;
36497;SDS011;22513;51.222;6.480;2023-12-14T07:25:54;8.15;;;7.03;;
36497;SDS011;22513;51.222;6.480;2023-12-14T07:28:20;8.57;;;7.40;;
36497;SDS011;22513;51.222;6.480;2023-12-14T07:30:46;9.82;;;7.03;;
36497;SDS011;22513;51.222;6.480;2023-12-14T07:33:12;9.60;;;7.10;;
36497;SDS011;22513;51.222;6.480;2023-12-14T07:35:39;7.25;;;6.28;;
36497;SDS011;22513;51.222;6.480;2023-12-14T07:38:04;9.25;;;6.88;;
36497;SDS011;22513;51.222;6.480;2023-12-14T07:40:30;8.10;;;6.53;;
36497;SDS011;22513;51.222;6.480;2023-12-14T07:42:56;9.50;;;7.10;;
36497;SDS011;22513;51.222;6.480;2023-12-14T07:45:21;373.92;;;81.45;;
36497;SDS011;22513;51.222;6.480;2023-12-14T07:47:47;498.25;;;243.05;;
36497;SDS011;22513;51.222;6.480;2023-12-14T07:50:12;724.97;;;410.23;;
36497;SDS011;22513;51.222;6.480;2023-12-14T07:52:39;981.15;;;520.15;;
36497;SDS011;22513;51.222;6.480;2023-12-14T07:55:05;1264.40;;;553.45;;
36497;SDS011;22513;51.222;6.480;2023-12-14T07:57:31;697.65;;;254.70;;
36497;SDS011;22513;51.222;6.480;2023-12-14T07:59:57;874.28;;;284.00;;
36497;SDS011;22513;51.222;6.480;2023-12-14T08:02:24;523.55;;;160.32;;
36497;SDS011;22513;51.222;6.480;2023-12-14T08:04:49;1002.53;;;304.08;;
36497;SDS011;22513;51.222;6.480;2023-12-14T08:07:15;243.02;;;67.68;;
36497;SDS011;22513;51.222;6.480;2023-12-14T08:09:40;98.32;;;33.30;;
36497;SDS011;22513;51.222;6.480;2023-12-14T08:12:06;152.27;;;49.45;;
36497;SDS011;22513;51.222;6.480;2023-12-14T08:14:34;106.60;;;38.13;;
36497;SDS011;22513;51.222;6.480;2023-12-14T08:17:01;46.13;;;20.25;;
36497;SDS011;22513;51.222;6.480;2023-12-14T08:19:26;23.73;;;14.60;;
36497;SDS011;22513;51.222;6.480;2023-12-14T08:21:52;14.98;;;10.10;;
36497;SDS011;22513;51.222;6.480;2023-12-14T08:24:18;11.00;;;8.73;;
36497;SDS011;22513;51.222;6.480;2023-12-14T08:26:43;9.88;;;8.38;;
36497;SDS011;22513;51.222;6.480;2023-12-14T08:29:09;12.90;;;8.50;;
36497;SDS011;22513;51.222;6.480;2023-12-14T08:31:35;5.85;;;5.18;;
36497;SDS011;22513;51.222;6.480;2023-12-14T08:34:00;6.75;;;5.88;;
36497;SDS011;22513;51.222;6.480;2023-12-14T08:36:26;9.55;;;7.35;;
36497;SDS011;22513;51.222;6.480;2023-12-14T08:38:52;7.82;;;6.68;;
36497;SDS011;22513;51.222;6.480;2023-12-14T08:41:17;6.15;;;5.38;;
36497;SDS011;22513;51.222;6.480;2023-12-14T08:43:43;8.10;;;5.60;;
36497;SDS011;22513;51.222;6.480;2023-12-14T08:46:09;5.75;;;4.38;;
36497;SDS011;22513;51.222;6.480;2023-12-14T08:48:35;4.72;;;4.13;;
36497;SDS011;22513;51.222;6.480;2023-12-14T08:51:00;7.28;;;6.28;;
36497;SDS011;22513;51.222;6.480;2023-12-14T08:53:26;6.82;;;5.80;;
36497;SDS011;22513;51.222;6.480;2023-12-14T08:55:52;8.73;;;6.57;;
36497;SDS011;22513;51.222;6.480;2023-12-14T08:58:18;6.50;;;5.80;;
36497;SDS011;22513;51.222;6.480;2023-12-14T09:00:44;5.47;;;4.97;;
36497;SDS011;22513;51.222;6.480;2023-12-14T09:03:09;8.77;;;6.43;;
36497;SDS011;22513;51.222;6.480;2023-12-14T09:05:35;7.55;;;5.50;;
36497;SDS011;22513;51.222;6.480;2023-12-14T09:08:01;6.47;;;3.45;;
36497;SDS011;22513;51.222;6.480;2023-12-14T09:10:28;3.60;;;2.70;;
36497;SDS011;22513;51.222;6.480;2023-12-14T09:12:53;4.93;;;2.45;;
36497;SDS011;22513;51.222;6.480;2023-12-14T09:15:19;3.03;;;1.98;;
36497;SDS011;22513;51.222;6.480;2023-12-14T09:17:45;2.00;;;1.70;;
36497;SDS011;22513;51.222;6.480;2023-12-14T09:20:10;2.42;;;1.85;;
36497;SDS011;22513;51.222;6.480;2023-12-14T09:22:36;3.08;;;1.90;;
36497;SDS011;22513;51.222;6.480;2023-12-14T09:25:02;2.47;;;1.40;;
36497;SDS011;22513;51.222;6.480;2023-12-14T09:27:28;1.35;;;1.20;;
36497;SDS011;22513;51.222;6.480;2023-12-14T09:29:54;1.67;;;1.33;;
36497;SDS011;22513;51.222;6.480;2023-12-14T09:32:20;2.55;;;1.40;;
36497;SDS011;22513;51.222;6.480;2023-12-14T09:34:46;2.42;;;1.05;;
36497;SDS011;22513;51.222;6.480;2023-12-14T09:37:12;2.45;;;1.20;;
36497;SDS011;22513;51.222;6.480;2023-12-14T09:39:39;2.42;;;1.20;;
36497;SDS011;22513;51.222;6.480;2023-12-14T09:42:05;3.83;;;1.20;;
36497;SDS011;22513;51.222;6.480;2023-12-14T09:44:35;2.45;;;1.00;;
36497;SDS011;22513;51.222;6.480;2023-12-14T09:47:02;1.60;;;1.17;;
36497;SDS011;22513;51.222;6.480;2023-12-14T09:49:28;1.23;;;1.10;;
36497;SDS011;22513;51.222;6.480;2023-12-14T09:51:58;2.05;;;0.93;;
36497;SDS011;22513;51.222;6.480;2023-12-14T09:54:26;1.60;;;1.02;;
36497;SDS011;22513;51.222;6.480;2023-12-14T09:56:52;1.27;;;1.10;;
36497;SDS011;22513;51.222;6.480;2023-12-14T09:59:18;0.88;;;0.88;;
36497;SDS011;22513;51.222;6.480;2023-12-14T10:01:44;0.85;;;0.73;;
36497;SDS011;22513;51.222;6.480;2023-12-14T10:04:13;1.00;;;0.90;;
36497;SDS011;22513;51.222;6.480;2023-12-14T10:06:42;0.98;;;0.82;;
36497;SDS011;22513;51.222;6.480;2023-12-14T10:09:09;1.95;;;1.00;;
36497;SDS011;22513;51.222;6.480;2023-12-14T10:11:38;0.88;;;0.88;;
36497;SDS011;22513;51.222;6.480;2023-12-14T10:14:17;0.80;;;0.80;;
36497;SDS011;22513;51.222;6.480;2023-12-14T10:16:45;0.82;;;0.73;;
36497;SDS011;22513;51.222;6.480;2023-12-14T10:19:12;0.70;;;0.70;;
36497;SDS011;22513;51.222;6.480;2023-12-14T10:21:38;0.55;;;0.55;;
36497;SDS011;22513;51.222;6.480;2023-12-14T10:24:03;0.73;;;0.73;;
36497;SDS011;22513;51.222;6.480;2023-12-14T10:26:31;0.80;;;0.80;;
36497;SDS011;22513;51.222;6.480;2023-12-14T10:28:56;1.17;;;0.60;;
36497;SDS011;22513;51.222;6.480;2023-12-14T10:31:22;0.90;;;0.70;;
36497;SDS011;22513;51.222;6.480;2023-12-14T10:33:49;0.80;;;0.60;;
36497;SDS011;22513;51.222;6.480;2023-12-14T10:36:17;0.70;;;0.70;;
36497;SDS011;22513;51.222;6.480;2023-12-14T10:38:49;1.00;;;0.73;;
36497;SDS011;22513;51.222;6.480;2023-12-14T10:41:18;0.70;;;0.70;;
36497;SDS011;22513;51.222;6.480;2023-12-14T10:43:46;0.70;;;0.70;;
36497;SDS011;22513;51.222;6.480;2023-12-14T10:46:13;0.60;;;0.60;;
36497;SDS011;22513;51.222;6.480;2023-12-14T10:48:39;0.70;;;0.70;;
36497;SDS011;22513;51.222;6.480;2023-12-14T10:51:09;0.60;;;0.60;;
36497;SDS011;22513;51.222;6.480;2023-12-14T10:53:36;0.90;;;0.60;;
36497;SDS011;22513;51.222;6.480;2023-12-14T10:56:09;0.50;;;0.50;;
36497;SDS011;22513;51.222;6.480;2023-12-14T10:58:46;0.47;;;0.47;;
36497;SDS011;22513;51.222;6.480;2023-12-14T11:01:20;0.50;;;0.50;;
36497;SDS011;22513;51.222;6.480;2023-12-14T11:03:49;0.60;;;0.60;;
36497;SDS011;22513;51.222;6.480;2023-12-14T11:08:53;0.50;;;0.50;;
36497;SDS011;22513;51.222;6.480;2023-12-14T11:11:29;0.50;;;0.50;;
36497;SDS011;22513;51.222;6.480;2023-12-14T11:13:55;1.23;;;0.60;;
36497;SDS011;22513;51.222;6.480;2023-12-14T11:16:21;0.60;;;0.60;;
36497;SDS011;22513;51.222;6.480;2023-12-14T11:18:47;0.60;;;0.60;;
36497;SDS011;22513;51.222;6.480;2023-12-14T11:21:22;0.43;;;0.43;;
36497;SDS011;22513;51.222;6.480;2023-12-14T11:23:50;0.60;;;0.50;;
36497;SDS011;22513;51.222;6.480;2023-12-14T11:26:22;0.50;;;0.50;;
36497;SDS011;22513;51.222;6.480;2023-12-14T11:28:50;0.40;;;0.40;;
36497;SDS011;22513;51.222;6.480;2023-12-14T11:31:15;0.50;;;0.50;;
36497;SDS011;22513;51.222;6.480;2023-12-14T11:33:41;0.40;;;0.40;;
36497;SDS011;22513;51.222;6.480;2023-12-14T11:36:10;0.50;;;0.50;;
36497;SDS011;22513;51.222;6.480;2023-12-14T11:38:36;0.43;;;0.43;;
36497;SDS011;22513;51.222;6.480;2023-12-14T11:41:02;0.40;;;0.40;;
36497;SDS011;22513;51.222;6.480;2023-12-14T11:43:28;0.50;;;0.50;;
36497;SDS011;22513;51.222;6.480;2023-12-14T11:45:54;0.50;;;0.50;;
36497;SDS011;22513;51.222;6.480;2023-12-14T11:48:20;0.50;;;0.50;;
36497;SDS011;22513;51.222;6.480;2023-12-14T11:50:46;0.57;;;0.57;;
36497;SDS011;22513;51.222;6.480;2023-12-14T11:53:12;0.40;;;0.40;;
36497;SDS011;22513;51.222;6.480;2023-12-14T11:55:39;0.50;;;0.50;;
36497;SDS011;22513;51.222;6.480;2023-12-14T11:58:06;0.50;;;0.50;;
36497;SDS011;22513;51.222;6.480;2023-12-14T12:00:33;0.50;;;0.50;;
36497;SDS011;22513;51.222;6.480;2023-12-14T12:03:09;0.55;;;0.55;;
36497;SDS011;22513;51.222;6.480;2023-12-14T12:05:39;0.40;;;0.40;;
36497;SDS011;22513;51.222;6.480;2023-12-14T12:08:09;0.50;;;0.50;;
36497;SDS011;22513;51.222;6.480;2023-12-14T12:10:35;0.85;;;0.45;;
36497;SDS011;22513;51.222;6.480;2023-12-14T12:13:06;0.50;;;0.50;;
36497;SDS011;22513;51.222;6.480;2023-12-14T12:15:36;0.55;;;0.55;;
36497;SDS011;22513;51.222;6.480;2023-12-14T12:18:02;0.40;;;0.40;;
36497;SDS011;22513;51.222;6.480;2023-12-14T12:20:30;0.47;;;0.47;;
36497;SDS011;22513;51.222;6.480;2023-12-14T12:22:56;0.75;;;0.63;;
36497;SDS011;22513;51.222;6.480;2023-12-14T12:25:21;0.50;;;0.50;;
36497;SDS011;22513;51.222;6.480;2023-12-14T12:27:48;0.60;;;0.52;;
36497;SDS011;22513;51.222;6.480;2023-12-14T12:30:13;0.40;;;0.40;;
36497;SDS011;22513;51.222;6.480;2023-12-14T12:32:40;0.35;;;0.35;;
36497;SDS011;22513;51.222;6.480;2023-12-14T12:35:06;0.47;;;0.40;;
36497;SDS011;22513;51.222;6.480;2023-12-14T12:37:32;0.50;;;0.50;;
36497;SDS011;22513;51.222;6.480;2023-12-14T12:39:58;0.40;;;0.40;;
36497;SDS011;22513;51.222;6.480;2023-12-14T12:42:24;0.35;;;0.35;;
36497;SDS011;22513;51.222;6.480;2023-12-14T12:44:50;0.40;;;0.40;;
36497;SDS011;22513;51.222;6.480;2023-12-14T12:47:16;0.50;;;0.50;;
36497;SDS011;22513;51.222;6.480;2023-12-14T12:49:42;0.47;;;0.47;;
36497;SDS011;22513;51.222;6.480;2023-12-14T12:52:08;0.47;;;0.47;;
36497;SDS011;22513;51.222;6.480;2023-12-14T12:54:34;0.45;;;0.45;;
36497;SDS011;22513;51.222;6.480;2023-12-14T12:57:00;0.50;;;0.50;;
36497;SDS011;22513;51.222;6.480;2023-12-14T12:59:25;0.40;;;0.40;;
36497;SDS011;22513;51.222;6.480;2023-12-14T13:01:51;0.40;;;0.40;;
36497;SDS011;22513;51.222;6.480;2023-12-14T13:04:17;0.40;;;0.40;;
36497;SDS011;22513;51.222;6.480;2023-12-14T13:06:44;0.50;;;0.50;;
36497;SDS011;22513;51.222;6.480;2023-12-14T13:09:10;0.47;;;0.47;;
36497;SDS011;22513;51.222;6.480;2023-12-14T13:11:37;0.35;;;0.35;;
36497;SDS011;22513;51.222;6.480;2023-12-14T13:14:02;0.30;;;0.30;;
36497;SDS011;22513;51.222;6.480;2023-12-14T13:16:32;0.50;;;0.50;;
36497;SDS011;22513;51.222;6.480;2023-12-14T13:19:05;0.38;;;0.38;;
36497;SDS011;22513;51.222;6.480;2023-12-14T13:21:31;2.47;;;0.40;;
36497;SDS011;22513;51.222;6.480;2023-12-14T13:24:01;0.50;;;0.50;;
36497;SDS011;22513;51.222;6.480;2023-12-14T13:26:27;0.43;;;0.40;;
36497;SDS011;22513;51.222;6.480;2023-12-14T13:28:53;0.38;;;0.38;;
36497;SDS011;22513;51.222;6.480;2023-12-14T13:31:20;1.35;;;0.47;;
36497;SDS011;22513;51.222;6.480;2023-12-14T13:33:46;2.30;;;0.40;;
36497;SDS011;22513;51.222;6.480;2023-12-14T13:36:12;0.30;;;0.30;;
36497;SDS011;22513;51.222;6.480;2023-12-14T13:38:39;0.30;;;0.30;;
36497;SDS011;22513;51.222;6.480;2023-12-14T13:41:06;0.75;;;0.30;;
36497;SDS011;22513;51.222;6.480;2023-12-14T13:43:32;0.30;;;0.30;;
36497;SDS011;22513;51.222;6.480;2023-12-14T13:45:58;0.30;;;0.30;;
36497;SDS011;22513;51.222;6.480;2023-12-14T13:48:26;0.47;;;0.47;;
36497;SDS011;22513;51.222;6.480;2023-12-14T13:50:53;0.30;;;0.30;;
36497;SDS011;22513;51.222;6.480;2023-12-14T13:53:22;0.40;;;0.40;;
36497;SDS011;22513;51.222;6.480;2023-12-14T13:55:48;0.40;;;0.40;;
36497;SDS011;22513;51.222;6.480;2023-12-14T13:58:15;0.30;;;0.30;;
36497;SDS011;22513;51.222;6.480;2023-12-14T14:00:41;0.30;;;0.30;;
36497;SDS011;22513;51.222;6.480;2023-12-14T14:03:07;0.50;;;0.50;;
36497;SDS011;22513;51.222;6.480;2023-12-14T14:05:32;0.20;;;0.20;;
36497;SDS011;22513;51.222;6.480;2023-12-14T14:07:58;0.30;;;0.30;;
36497;SDS011;22513;51.222;6.480;2023-12-14T14:10:24;0.40;;;0.40;;
36497;SDS011;22513;51.222;6.480;2023-12-14T14:12:50;0.30;;;0.30;;
36497;SDS011;22513;51.222;6.480;2023-12-14T14:15:16;0.40;;;0.40;;
36497;SDS011;22513;51.222;6.480;2023-12-14T14:17:42;0.40;;;0.40;;
36497;SDS011;22513;51.222;6.480;2023-12-14T14:20:08;0.60;;;0.60;;
36497;SDS011;22513;51.222;6.480;2023-12-14T14:22:35;0.52;;;0.52;;
36497;SDS011;22513;51.222;6.480;2023-12-14T14:25:03;0.50;;;0.50;;
36497;SDS011;22513;51.222;6.480;2023-12-14T14:27:31;0.40;;;0.40;;
36497;SDS011;22513;51.222;6.480;2023-12-14T14:29:57;0.43;;;0.43;;
36497;SDS011;22513;51.222;6.480;2023-12-14T14:32:23;0.32;;;0.32;;
36497;SDS011;22513;51.222;6.480;2023-12-14T14:34:48;0.40;;;0.40;;
36497;SDS011;22513;51.222;6.480;2023-12-14T14:37:14;0.45;;;0.45;;
36497;SDS011;22513;51.222;6.480;2023-12-14T14:39:40;0.40;;;0.40;;
36497;SDS011;22513;51.222;6.480;2023-12-14T14:42:08;0.43;;;0.43;;